This is the latest recevied weather packets stored in our database for station/object OK1PMP-6. If no packets are shown the sender has not sent any weather packets the latest 10 day(s).
| Time | Temp. | Humidity | Pressure | Rain* | Wind** | Luminosity | Snow |
|---|---|---|---|---|---|---|---|
| 1777691666 | 1.67° C | 84% | 1028.7 hPa | 0 mm | - | 0 W/m² | - |
| 1777690766 | 1.67° C | 85% | 1028.8 hPa | 0 mm | - | 0 W/m² | - |
| 1777689865 | 1.67° C | 81% | 1028.6 hPa | 0 mm | - | 0 W/m² | - |
| 1777688960 | 1.67° C | 82% | 1028.7 hPa | 0 mm | - | 0 W/m² | - |
| 1777688058 | 2.22° C | 81% | 1028.7 hPa | 0 mm | - | 0 W/m² | - |
| 1777669988 | 7.78° C | 65% | 1029.1 hPa | 0 mm | - | 0 W/m² | - |
| 1777669090 | 7.78° C | 63% | 1029.1 hPa | 0 mm | - | 0 W/m² | - |
| 1777667282 | 9.44° C | 58% | 1029 hPa | 0 mm | - | 0 W/m² | - |
| 1777665463 | 11.11° C | 55% | 1028.9 hPa | 0 mm | - | 0 W/m² | - |
| 1777660933 | 13.89° C | 47% | 1028.7 hPa | 0 mm | - | 0 W/m² | - |
| 1777660030 | 15° C | 45% | 1028.6 hPa | 0 mm | - | 0 W/m² | - |
| 1777659131 | 16.67° C | 42% | 1028.3 hPa | 0 mm | - | 5 W/m² | - |
| 1777655516 | 20.56° C | 33% | 1028 hPa | 0 mm | - | 29 W/m² | - |
| 1777654613 | 21.67° C | 33% | 1028.2 hPa | 0 mm | - | 40 W/m² | - |
| 1777652817 | 22.78° C | 31% | 1028.2 hPa | 0 mm | - | 40 W/m² | - |
| 1777651908 | 23.89° C | 30% | 1028.4 hPa | 0 mm | - | 43 W/m² | - |
| 1777651009 | 23.89° C | 29% | 1028.6 hPa | 0 mm | - | 46 W/m² | - |
| 1777650106 | 23.33° C | 29% | 1028.5 hPa | 0 mm | - | 167 W/m² | - |
| 1777649199 | 23.89° C | 29% | 1028.5 hPa | 0 mm | - | 71 W/m² | - |
| 1777648294 | 23.89° C | 28% | 1028.7 hPa | 0 mm | - | 66 W/m² | - |
| 1777647388 | 23.89° C | 30% | 1028.8 hPa | 0 mm | - | 240 W/m² | - |
| 1777645582 | 24.44° C | 28% | 1029.1 hPa | 0 mm | - | 60 W/m² | - |
| 1777644675 | 23.89° C | 28% | 1029.4 hPa | 0 mm | - | 256 W/m² | - |
| 1777643771 | 23.89° C | 29% | 1029.3 hPa | 0 mm | - | 456 W/m² | - |
| 1777642860 | 23.89° C | 31% | 1029.6 hPa | 0 mm | - | 489 W/m² | - |
* Rain latest hour (hover to see other rain measurements)
** Current wind speed in m/s (hover to see current wind gust speed)